Pagrindinis puslapis
METAR-TAF:

METAR-TAF

Oro uostai :

Hambantota, Šri Lanka

platuma: 06-17-20N, ilguma: 81-07-25E, Aukštis: 48 m

Dabartinis oras

Ataskaita buvo paskelbta 4 valandos ir 1 minutes, ne 18:10 UTC
Vėjas 6 kt iš Šiaurės Vakarų, svyruoja nuo Vakarų ir Šiaurės/Šiaurės Vakarų
Temperatūra 25°C
Drėgmė 100%
Slėgis 1013 hPa
Matomumas 10 km arba daugiau
Mažai debesys ne aukštis 1800 ft

METAR: VCRI 121810Z 31006KT 260V330 9999 FEW018 25/25 Q1013 NOSIG

Laikas: 03:41 (22:11 UTC)

Prognozė

Ataskaita buvo paskelbta 5 valandos ir 11 minutes, ne 17:00 UTC
Prognozė galioja nuo 12 metu 18 UTC su 13 metu 24 UTC
Vėjas 5 kt nuo kintamojo kryptimis
Matomumas 10 km arba daugiau
Išsisklaidę debesys ne aukštis 1800 ft
Tikimybė 30% :
Laikinai
nuo 13 metu 08 UTC su 13 metu 16 UTC
Matomumas: 7000 m
Išsisklaidę debesys ne aukštis 1700 ft
Mažai debesys ne aukštis 2000 ft, Liūtiniai kamuoliniai debesys.

TAF: VCRI 121700Z 1218/1324 VRB05KT 9999 SCT018 TX33/1308Z TN24/1300Z PROB30 TEMPO 1308/1316 7000 -TSRA/SHRA SCT017 FEW020CB

Orai ataskaitas ir orų prognozės (METAR, TAF).

turimą stotys yra geltonos ir raudonos taškus žemėlapyje.

Perkelti pele per norėdami pamatyti stoties vardą.

Tada spustelėkite, norėdami matyti oro stebėjimo ir prognozės.

Norėdami pakeisti žemėlapį: spustelėkite ant žalios mygtukų su juodo kryžiaus žemyn,; žalią mygtuką su brūkšneliu, jei norite nutolinti; arba žalių rodyklių gretimoms žemėlapius.


METAR-TAF: